Time;durP1;ratioP1;P1;durP2;ratioP2;P2;SDS_P1;SDS_P2;PMS_P1;PMS_P2;Temp;Humidity;BMP_temperature;BMP_pressure;BME280_temperature;BME280_humidity;BME280_pressure;Samples;Min_cycle;Max_cycle;Signal;HPM_P1;HPM_P2
2023/02/06 00:00:14;;;;;;;7.80;3.40;;;;;;;;;;522659;28;1458;-79
2023/02/06 00:00:30;;;;;;;7.05;3.45;;;;;;;;;;520296;28;1361;-79
2023/02/06 00:00:47;;;;;;;6.07;3.43;;;;;;;;;;516817;28;1253;-80
2023/02/06 00:01:02;;;;;;;4.75;3.20;;;;;;;;;;517032;28;1343;-80
2023/02/06 00:01:18;;;;;;;4.97;3.13;;;;;;;;;;519486;28;1328;-79
2023/02/06 00:01:35;;;;;;;5.70;3.30;;;;;;;;;;518632;28;913;-79
2023/02/06 00:01:51;;;;;;;5.90;3.40;;;;;;;;;;515459;28;1369;-79
2023/02/06 00:02:06;;;;;;;6.00;3.30;;;;;;;;;;515947;28;1306;-79
2023/02/06 00:02:21;;;;;;;6.80;3.40;;;;;;;;;;516781;28;1181;-80
2023/02/06 00:02:36;;;;;;;6.23;3.40;;;;;;;;;;517176;28;2099;-80
2023/02/06 00:02:52;;;;;;;5.63;3.33;;;;;;;;;;515328;28;1227;-79
2023/02/06 00:03:07;;;;;;;5.87;3.20;;;;;;;;;;513438;28;1183;-80
2023/02/06 00:03:23;;;;;;;6.47;3.40;;;;;;;;;;512391;28;1387;-80
2023/02/06 00:03:38;;;;;;;6.37;3.40;;;;;;;;;;513821;28;1345;-80
2023/02/06 00:03:53;;;;;;;5.00;3.27;;;;;;;;;;515820;28;1446;-80
2023/02/06 00:04:09;;;;;;;4.60;3.10;;;;;;;;;;518593;28;1191;-80
2023/02/06 00:04:24;;;;;;;5.00;3.10;;;;;;;;;;519021;28;1325;-80
2023/02/06 00:04:39;;;;;;;5.65;3.30;;;;;;;;;;516710;28;1900;-80
2023/02/06 00:04:55;;;;;;;5.70;3.23;;;;;;;;;;517627;28;1360;-79
2023/02/06 00:05:10;;;;;;;5.03;3.00;;;;;;;;;;516034;28;1160;-80
2023/02/06 00:05:25;;;;;;;5.27;3.00;;;;;;;;;;517156;28;1180;-79
2023/02/06 00:05:41;;;;;;;5.85;3.13;;;;;;;;;;517323;28;1295;-80
2023/02/06 00:05:58;;;;;;;5.70;3.10;;;;;;;;;;516840;28;1307;-80
2023/02/06 00:06:14;;;;;;;6.47;3.30;;;;;;;;;;514339;28;1473;-80
2023/02/06 00:06:29;;;;;;;6.43;3.30;;;;;;;;;;515734;28;1273;-79
2023/02/06 00:06:45;;;;;;;6.57;3.50;;;;;;;;;;515567;28;1205;-79
2023/02/06 00:07:00;;;;;;;5.97;3.47;;;;;;;;;;515017;28;1212;-80
2023/02/06 00:07:15;;;;;;;5.77;3.37;;;;;;;;;;516766;28;1227;-79
2023/02/06 00:07:30;;;;;;;6.78;3.33;;;;;;;;;;518411;28;1422;-80
2023/02/06 00:07:46;;;;;;;6.67;3.20;;;;;;;;;;517497;28;1411;-79
2023/02/06 00:08:01;;;;;;;5.43;3.17;;;;;;;;;;518045;28;1191;-80
2023/02/06 00:08:16;;;;;;;4.68;3.10;;;;;;;;;;520034;28;1301;-79
2023/02/06 00:08:33;;;;;;;5.30;3.13;;;;;;;;;;521707;28;1030;-79
2023/02/06 00:08:48;;;;;;;5.13;3.10;;;;;;;;;;521763;28;1148;-80
2023/02/06 00:09:05;;;;;;;4.87;3.10;;;;;;;;;;518541;28;1151;-79
2023/02/06 00:09:20;;;;;;;5.82;3.15;;;;;;;;;;519316;28;1425;-80
2023/02/06 00:09:36;;;;;;;5.70;3.13;;;;;;;;;;519807;28;1173;-80
2023/02/06 00:09:51;;;;;;;5.23;3.10;;;;;;;;;;520647;28;1199;-80
2023/02/06 00:10:07;;;;;;;5.65;3.33;;;;;;;;;;519096;28;1294;-80
2023/02/06 00:10:22;;;;;;;7.07;3.50;;;;;;;;;;518993;28;1201;-80
2023/02/06 00:10:37;;;;;;;7.23;3.37;;;;;;;;;;520031;28;1221;-79
2023/02/06 00:10:53;;;;;;;5.87;3.30;;;;;;;;;;520162;28;1118;-80
2023/02/06 00:11:11;;;;;;;4.95;3.15;;;;;;;;;;519346;28;1137;-79
2023/02/06 00:11:26;;;;;;;5.65;3.13;;;;;;;;;;520873;28;1247;-80
2023/02/06 00:11:42;;;;;;;6.13;3.20;;;;;;;;;;521329;28;1357;-80
2023/02/06 00:11:57;;;;;;;6.38;3.15;;;;;;;;;;520851;28;1333;-80
2023/02/06 00:12:12;;;;;;;6.60;3.20;;;;;;;;;;522107;28;1440;-80
2023/02/06 00:12:28;;;;;;;6.23;3.23;;;;;;;;;;519926;28;1200;-80
2023/02/06 00:12:43;;;;;;;5.88;3.35;;;;;;;;;;518073;28;1181;-80
2023/02/06 00:12:58;;;;;;;6.00;3.33;;;;;;;;;;521009;28;1479;-80
2023/02/06 00:13:14;;;;;;;6.37;3.33;;;;;;;;;;517627;28;1172;-80
2023/02/06 00:13:29;;;;;;;6.30;3.50;;;;;;;;;;519766;28;1293;-79
2023/02/06 00:13:44;;;;;;;6.90;3.43;;;;;;;;;;519743;28;1255;-79
2023/02/06 00:14:00;;;;;;;6.47;3.30;;;;;;;;;;519743;28;1256;-80
2023/02/06 00:14:15;;;;;;;5.53;3.20;;;;;;;;;;522986;28;1156;-79
2023/02/06 00:14:31;;;;;;;6.30;3.27;;;;;;;;;;521794;28;1245;-80
2023/02/06 00:14:46;;;;;;;7.28;3.45;;;;;;;;;;522314;28;1117;-80
2023/02/06 00:15:02;;;;;;;7.25;3.33;;;;;;;;;;520008;28;1169;-80
2023/02/06 00:15:17;;;;;;;6.87;3.20;;;;;;;;;;518056;28;1299;-80
2023/02/06 00:15:32;;;;;;;6.37;3.20;;;;;;;;;;520221;28;1149;-80
2023/02/06 00:15:48;;;;;;;6.05;3.20;;;;;;;;;;520171;28;1189;-80
2023/02/06 00:16:04;;;;;;;6.10;3.17;;;;;;;;;;519733;28;1257;-80
2023/02/06 00:16:22;;;;;;;8.70;3.35;;;;;;;;;;517985;28;1169;-80
2023/02/06 00:16:38;;;;;;;7.65;3.30;;;;;;;;;;517280;28;1162;-80
2023/02/06 00:16:53;;;;;;;6.47;3.30;;;;;;;;;;518097;28;1146;-80
2023/02/06 00:17:08;;;;;;;6.43;3.27;;;;;;;;;;518391;28;1305;-80
2023/02/06 00:17:23;;;;;;;7.15;3.30;;;;;;;;;;519249;28;1174;-79
2023/02/06 00:17:39;;;;;;;7.70;3.40;;;;;;;;;;521960;28;1218;-80
2023/02/06 00:17:54;;;;;;;8.93;3.50;;;;;;;;;;520947;28;1453;-79
2023/02/06 00:18:09;;;;;;;7.40;3.30;;;;;;;;;;521825;28;1383;-80
2023/02/06 00:18:25;;;;;;;5.82;3.10;;;;;;;;;;523218;28;1128;-81
2023/02/06 00:18:40;;;;;;;6.57;3.20;;;;;;;;;;518976;28;1207;-80
2023/02/06 00:18:57;;;;;;;6.78;3.22;;;;;;;;;;519433;28;1540;-80
2023/02/06 00:19:12;;;;;;;6.90;3.28;;;;;;;;;;517685;28;1440;-80
2023/02/06 00:19:27;;;;;;;5.82;3.20;;;;;;;;;;517604;28;1265;-79
2023/02/06 00:19:43;;;;;;;5.17;3.10;;;;;;;;;;516078;28;1194;-80
2023/02/06 00:19:58;;;;;;;5.28;2.90;;;;;;;;;;517032;28;980;-80
2023/02/06 00:20:14;;;;;;;5.70;3.10;;;;;;;;;;518264;28;1478;-79
2023/02/06 00:20:29;;;;;;;6.40;3.20;;;;;;;;;;519179;28;1309;-80
2023/02/06 00:20:44;;;;;;;6.57;3.00;;;;;;;;;;519557;28;1307;-80
2023/02/06 00:20:59;;;;;;;6.30;3.13;;;;;;;;;;521017;28;1215;-80
2023/02/06 00:21:18;;;;;;;5.83;3.20;;;;;;;;;;521836;28;1290;-79
2023/02/06 00:21:34;;;;;;;5.65;3.17;;;;;;;;;;521523;28;1153;-80
2023/02/06 00:21:49;;;;;;;6.60;3.37;;;;;;;;;;521516;28;1258;-80
2023/02/06 00:22:04;;;;;;;7.38;3.42;;;;;;;;;;521162;28;1098;-80
2023/02/06 00:22:20;;;;;;;6.97;3.17;;;;;;;;;;521979;28;1645;-80
2023/02/06 00:22:35;;;;;;;5.83;3.20;;;;;;;;;;520687;28;1301;-80
2023/02/06 00:22:50;;;;;;;5.15;3.20;;;;;;;;;;517520;28;1236;-80
2023/02/06 00:23:06;;;;;;;5.93;3.17;;;;;;;;;;517669;28;1311;-79
2023/02/06 00:23:21;;;;;;;6.75;3.30;;;;;;;;;;516068;28;1272;-79
2023/02/06 00:23:36;;;;;;;6.00;3.17;;;;;;;;;;517388;28;1222;-80
2023/02/06 00:23:54;;;;;;;6.07;3.13;;;;;;;;;;517025;28;1160;-79
2023/02/06 00:24:09;;;;;;;7.10;3.20;;;;;;;;;;517527;28;1255;-80
2023/02/06 00:24:24;;;;;;;6.57;3.05;;;;;;;;;;518965;28;1514;-80
2023/02/06 00:24:39;;;;;;;5.83;3.00;;;;;;;;;;514695;28;1928;-78
2023/02/06 00:24:55;;;;;;;5.37;3.10;;;;;;;;;;515907;28;1120;-80
2023/02/06 00:25:10;;;;;;;5.70;3.25;;;;;;;;;;514724;28;1304;-80
2023/02/06 00:25:25;;;;;;;6.33;3.50;;;;;;;;;;518751;28;1438;-80
2023/02/06 00:25:41;;;;;;;6.97;3.40;;;;;;;;;;517606;28;1181;-79
2023/02/06 00:25:56;;;;;;;6.77;3.30;;;;;;;;;;519311;28;1196;-80
2023/02/06 00:26:11;;;;;;;6.03;3.30;;;;;;;;;;516270;28;1255;-81
2023/02/06 00:26:27;;;;;;;5.70;3.23;;;;;;;;;;518570;28;1378;-80
2023/02/06 00:26:42;;;;;;;6.28;3.38;;;;;;;;;;520636;28;1294;-80
2023/02/06 00:26:57;;;;;;;6.23;3.33;;;;;;;;;;518209;28;1181;-80
2023/02/06 00:27:13;;;;;;;6.17;3.30;;;;;;;;;;519814;28;1172;-79
2023/02/06 00:27:28;;;;;;;6.20;3.30;;;;;;;;;;520335;28;1294;-80
2023/02/06 00:27:43;;;;;;;5.90;3.30;;;;;;;;;;519219;28;1122;-80
2023/02/06 00:27:59;;;;;;;5.50;3.20;;;;;;;;;;517899;28;1507;-80
2023/02/06 00:28:14;;;;;;;5.75;3.28;;;;;;;;;;515473;28;1210;-78
2023/02/06 00:28:29;;;;;;;5.93;3.30;;;;;;;;;;517157;28;1211;-80
2023/02/06 00:28:45;;;;;;;5.77;3.10;;;;;;;;;;517875;28;1305;-80
2023/02/06 00:29:01;;;;;;;5.53;3.28;;;;;;;;;;517813;28;1232;-79
2023/02/06 00:29:16;;;;;;;5.73;3.30;;;;;;;;;;517669;28;1319;-79
2023/02/06 00:29:32;;;;;;;6.90;3.20;;;;;;;;;;514240;28;1365;-79
2023/02/06 00:29:47;;;;;;;6.72;3.40;;;;;;;;;;519166;28;1218;-80
2023/02/06 00:30:05;;;;;;;6.93;3.47;;;;;;;;;;520671;28;1167;-80
2023/02/06 00:30:21;;;;;;;7.35;3.40;;;;;;;;;;519071;28;1301;-78
2023/02/06 00:30:36;;;;;;;6.53;3.30;;;;;;;;;;517651;28;1441;-79
2023/02/06 00:30:51;;;;;;;5.60;3.40;;;;;;;;;;515689;28;1208;-79
2023/02/06 00:31:08;;;;;;;5.85;3.42;;;;;;;;;;515199;28;1023;-79
2023/02/06 00:31:23;;;;;;;6.22;3.28;;;;;;;;;;515545;28;1499;-79
2023/02/06 00:31:38;;;;;;;6.80;3.30;;;;;;;;;;512639;28;1218;-78
2023/02/06 00:31:53;;;;;;;6.55;3.22;;;;;;;;;;515437;28;1259;-79
2023/02/06 00:32:09;;;;;;;6.67;3.30;;;;;;;;;;521028;28;1282;-79
2023/02/06 00:32:24;;;;;;;6.47;3.37;;;;;;;;;;519593;28;1323;-79
2023/02/06 00:32:39;;;;;;;6.70;3.40;;;;;;;;;;521315;28;1251;-79
2023/02/06 00:32:54;;;;;;;7.47;3.50;;;;;;;;;;518978;28;1442;-79
2023/02/06 00:33:10;;;;;;;6.50;3.37;;;;;;;;;;519770;28;1163;-79
2023/02/06 00:33:25;;;;;;;5.27;3.23;;;;;;;;;;520167;28;1223;-79
2023/02/06 00:33:42;;;;;;;5.75;3.20;;;;;;;;;;519297;28;1102;-79
2023/02/06 00:33:57;;;;;;;6.88;3.13;;;;;;;;;;517599;28;1503;-80
2023/02/06 00:34:12;;;;;;;6.55;3.10;;;;;;;;;;519494;28;1515;-79
2023/02/06 00:34:28;;;;;;;6.47;3.50;;;;;;;;;;519357;28;1207;-79
2023/02/06 00:34:43;;;;;;;6.30;3.43;;;;;;;;;;518811;28;1187;-80
2023/02/06 00:34:58;;;;;;;6.37;3.40;;;;;;;;;;518083;28;1409;-79
2023/02/06 00:35:13;;;;;;;5.78;3.40;;;;;;;;;;517709;28;1307;-80
2023/02/06 00:35:29;;;;;;;4.43;3.20;;;;;;;;;;516922;28;1211;-79
2023/02/06 00:35:44;;;;;;;5.53;3.30;;;;;;;;;;517721;28;1343;-80
2023/02/06 00:35:59;;;;;;;6.45;3.30;;;;;;;;;;519999;28;1207;-80
2023/02/06 00:36:15;;;;;;;6.40;3.30;;;;;;;;;;520103;28;1184;-79
2023/02/06 00:36:32;;;;;;;6.15;3.30;;;;;;;;;;522499;28;1214;-80
2023/02/06 00:36:47;;;;;;;6.40;3.38;;;;;;;;;;521788;28;1486;-79
2023/02/06 00:37:03;;;;;;;6.57;3.30;;;;;;;;;;518087;28;1222;-80
2023/02/06 00:37:18;;;;;;;6.03;3.20;;;;;;;;;;519136;28;1268;-80
2023/02/06 00:37:33;;;;;;;6.28;3.30;;;;;;;;;;520060;28;1239;-80
2023/02/06 00:37:49;;;;;;;6.13;3.13;;;;;;;;;;515963;28;1280;-80
2023/02/06 00:38:05;;;;;;;5.93;3.20;;;;;;;;;;515778;28;1216;-80
2023/02/06 00:38:20;;;;;;;5.85;3.20;;;;;;;;;;517686;28;1396;-80
2023/02/06 00:38:37;;;;;;;6.10;3.40;;;;;;;;;;519282;28;1501;-80
2023/02/06 00:38:52;;;;;;;7.22;3.58;;;;;;;;;;519097;28;1165;-80
2023/02/06 00:39:07;;;;;;;7.27;3.40;;;;;;;;;;519707;28;1176;-80
2023/02/06 00:39:23;;;;;;;7.27;3.30;;;;;;;;;;521318;28;1256;-79
2023/02/06 00:39:38;;;;;;;6.87;3.30;;;;;;;;;;519860;28;998;-79
2023/02/06 00:39:53;;;;;;;7.10;3.38;;;;;;;;;;519780;28;1256;-79
2023/02/06 00:40:09;;;;;;;6.77;3.30;;;;;;;;;;519125;28;1240;-80
2023/02/06 00:40:24;;;;;;;6.00;3.35;;;;;;;;;;519957;28;1268;-80
2023/02/06 00:40:39;;;;;;;6.57;3.37;;;;;;;;;;519354;28;1310;-80
2023/02/06 00:40:55;;;;;;;6.83;3.30;;;;;;;;;;518570;28;1160;-80
2023/02/06 00:41:10;;;;;;;5.67;3.20;;;;;;;;;;518263;28;1194;-80
2023/02/06 00:41:26;;;;;;;5.80;3.30;;;;;;;;;;520112;28;1192;-80
2023/02/06 00:41:41;;;;;;;6.82;3.30;;;;;;;;;;518105;28;1223;-80
2023/02/06 00:41:56;;;;;;;6.63;3.00;;;;;;;;;;517391;28;1209;-79
2023/02/06 00:42:12;;;;;;;5.77;3.10;;;;;;;;;;517427;28;1330;-80
2023/02/06 00:42:28;;;;;;;4.78;3.17;;;;;;;;;;518827;28;1302;-79
2023/02/06 00:42:43;;;;;;;5.33;3.20;;;;;;;;;;519311;28;1193;-79
2023/02/06 00:42:58;;;;;;;5.30;3.00;;;;;;;;;;519086;28;1251;-79
2023/02/06 00:43:13;;;;;;;5.43;3.00;;;;;;;;;;520183;28;1280;-79
2023/02/06 00:43:29;;;;;;;5.75;2.95;;;;;;;;;;519778;28;1359;-80
2023/02/06 00:43:44;;;;;;;5.00;2.80;;;;;;;;;;516440;28;1379;-79
2023/02/06 00:44:00;;;;;;;5.60;3.00;;;;;;;;;;518373;28;1010;-79
2023/02/06 00:44:15;;;;;;;7.17;3.23;;;;;;;;;;519737;28;1061;-79
2023/02/06 00:44:30;;;;;;;6.93;3.27;;;;;;;;;;519578;28;1971;-79
2023/02/06 00:44:45;;;;;;;6.22;3.20;;;;;;;;;;519528;28;1337;-79
2023/02/06 00:45:01;;;;;;;6.33;3.13;;;;;;;;;;517714;28;1287;-80
2023/02/06 00:45:16;;;;;;;6.47;3.00;;;;;;;;;;519634;28;1236;-80
2023/02/06 00:45:32;;;;;;;7.13;3.10;;;;;;;;;;518798;28;1330;-79
2023/02/06 00:45:55;;;;;;;7.10;3.10;;;;;;;;;;519460;28;1376;-80
2023/02/06 00:46:10;;;;;;;5.78;2.70;;;;;;;;;;520894;28;1302;-80
2023/02/06 00:46:25;;;;;;;5.05;2.70;;;;;;;;;;520877;28;1195;-80
2023/02/06 00:46:41;;;;;;;5.73;2.80;;;;;;;;;;520751;28;1129;-79
2023/02/06 00:46:57;;;;;;;6.70;2.90;;;;;;;;;;518259;28;1179;-80
2023/02/06 00:47:12;;;;;;;5.80;2.95;;;;;;;;;;519684;28;1368;-79
2023/02/06 00:47:28;;;;;;;4.07;2.63;;;;;;;;;;519579;28;1274;-79
2023/02/06 00:47:43;;;;;;;4.17;2.63;;;;;;;;;;517383;28;1329;-80
2023/02/06 00:47:59;;;;;;;5.60;2.97;;;;;;;;;;516227;28;1261;-79
2023/02/06 00:48:15;;;;;;;5.57;2.90;;;;;;;;;;518108;28;924;-79
2023/02/06 00:48:30;;;;;;;4.95;2.65;;;;;;;;;;518881;28;1175;-80
2023/02/06 00:48:46;;;;;;;5.87;2.70;;;;;;;;;;520136;28;1112;-79
2023/02/06 00:49:01;;;;;;;6.20;2.80;;;;;;;;;;516702;28;1278;-80
2023/02/06 00:49:17;;;;;;;6.15;2.80;;;;;;;;;;517817;28;1156;-80
2023/02/06 00:49:32;;;;;;;6.20;2.90;;;;;;;;;;517894;28;1338;-80
2023/02/06 00:49:47;;;;;;;5.60;2.95;;;;;;;;;;519285;28;1346;-80
2023/02/06 00:50:03;;;;;;;6.07;2.90;;;;;;;;;;519067;28;1505;-80
2023/02/06 00:50:19;;;;;;;6.22;3.00;;;;;;;;;;518630;28;1522;-80
2023/02/06 00:50:34;;;;;;;5.63;2.85;;;;;;;;;;516528;28;1332;-80
2023/02/06 00:50:51;;;;;;;5.33;2.60;;;;;;;;;;517929;28;1321;-79
2023/02/06 00:51:07;;;;;;;5.47;2.80;;;;;;;;;;518729;28;1221;-80
2023/02/06 00:51:22;;;;;;;5.60;2.80;;;;;;;;;;517504;28;1312;-79
2023/02/06 00:51:38;;;;;;;5.67;2.90;;;;;;;;;;519053;28;1211;-79
2023/02/06 00:51:53;;;;;;;5.53;3.08;;;;;;;;;;520285;28;1582;-80
2023/02/06 00:52:09;;;;;;;4.90;2.93;;;;;;;;;;521612;28;1328;-80
2023/02/06 00:52:24;;;;;;;4.50;2.73;;;;;;;;;;518688;28;1260;-79
2023/02/06 00:52:39;;;;;;;4.80;2.70;;;;;;;;;;517916;28;1223;-80
2023/02/06 00:52:54;;;;;;;5.60;2.90;;;;;;;;;;517048;28;1306;-80
2023/02/06 00:53:10;;;;;;;5.90;2.90;;;;;;;;;;517675;28;1202;-80
2023/02/06 00:53:25;;;;;;;5.95;2.75;;;;;;;;;;517280;28;1138;-79
2023/02/06 00:53:40;;;;;;;6.03;2.77;;;;;;;;;;520033;28;1255;-80
2023/02/06 00:53:55;;;;;;;6.47;3.03;;;;;;;;;;520200;28;998;-80
2023/02/06 00:54:11;;;;;;;6.10;3.10;;;;;;;;;;517598;28;1191;-80
2023/02/06 00:54:26;;;;;;;5.85;2.97;;;;;;;;;;520768;28;1207;-80
2023/02/06 00:54:41;;;;;;;5.07;2.83;;;;;;;;;;521608;28;1195;-79
2023/02/06 00:54:57;;;;;;;4.93;2.70;;;;;;;;;;520696;28;1160;-80
2023/02/06 00:55:12;;;;;;;5.93;2.80;;;;;;;;;;521838;28;1154;-80
2023/02/06 00:55:27;;;;;;;6.00;2.77;;;;;;;;;;522515;28;1283;-79
2023/02/06 00:55:43;;;;;;;5.40;2.70;;;;;;;;;;519623;28;1298;-78
2023/02/06 00:55:58;;;;;;;4.10;2.47;;;;;;;;;;517144;28;1237;-80
2023/02/06 00:56:13;;;;;;;5.00;2.50;;;;;;;;;;517593;28;1203;-80
2023/02/06 00:56:29;;;;;;;5.77;2.70;;;;;;;;;;516127;28;1388;-80
2023/02/06 00:56:44;;;;;;;4.93;2.58;;;;;;;;;;516431;28;1396;-80
2023/02/06 00:56:59;;;;;;;5.37;2.70;;;;;;;;;;517157;28;1558;-79
2023/02/06 00:57:14;;;;;;;5.30;2.70;;;;;;;;;;515419;28;1235;-79
2023/02/06 00:57:30;;;;;;;5.43;2.70;;;;;;;;;;517957;28;1194;-80
2023/02/06 00:57:45;;;;;;;5.30;2.67;;;;;;;;;;516977;28;1240;-80
2023/02/06 00:58:00;;;;;;;4.37;2.50;;;;;;;;;;517042;28;1358;-80
2023/02/06 00:58:15;;;;;;;5.77;2.60;;;;;;;;;;518263;28;1169;-79
2023/02/06 00:58:31;;;;;;;6.72;2.53;;;;;;;;;;520073;28;1240;-79
2023/02/06 00:58:46;;;;;;;5.57;2.47;;;;;;;;;;521525;28;1163;-80
2023/02/06 00:59:01;;;;;;;5.27;2.47;;;;;;;;;;520624;28;1106;-80
2023/02/06 00:59:17;;;;;;;5.35;2.50;;;;;;;;;;519140;28;1176;-79
2023/02/06 00:59:32;;;;;;;5.70;2.70;;;;;;;;;;521185;28;1184;-80
2023/02/06 00:59:47;;;;;;;5.90;2.80;;;;;;;;;;520127;28;1142;-79
2023/02/06 01:00:05;;;;;;;5.40;2.60;;;;;;;;;;521029;28;1223;-79
2023/02/06 01:00:20;;;;;;;5.35;2.72;;;;;;;;;;518066;28;1351;-80
2023/02/06 01:00:36;;;;;;;4.72;2.67;;;;;;;;;;519551;28;1309;-80
2023/02/06 01:00:51;;;;;;;4.63;2.50;;;;;;;;;;517761;28;1373;-79
2023/02/06 01:01:07;;;;;;;5.18;2.45;;;;;;;;;;519385;28;1389;-80
2023/02/06 01:01:24;;;;;;;6.00;2.90;;;;;;;;;;520259;28;1429;-79
2023/02/06 01:01:39;;;;;;;5.95;2.88;;;;;;;;;;520711;28;1237;-79
2023/02/06 01:01:54;;;;;;;6.05;2.60;;;;;;;;;;517274;28;1206;-80
2023/02/06 01:02:10;;;;;;;6.00;2.60;;;;;;;;;;515735;28;1442;-79
2023/02/06 01:02:25;;;;;;;4.97;2.40;;;;;;;;;;518160;28;1220;-80
2023/02/06 01:02:41;;;;;;;4.65;2.42;;;;;;;;;;513881;28;1336;-80
2023/02/06 01:02:56;;;;;;;4.93;2.50;;;;;;;;;;515397;28;1171;-80
2023/02/06 01:03:11;;;;;;;4.87;2.30;;;;;;;;;;515684;28;1318;-79
2023/02/06 01:03:26;;;;;;;4.10;2.28;;;;;;;;;;517849;28;1228;-80
2023/02/06 01:03:42;;;;;;;4.03;2.37;;;;;;;;;;519465;28;1299;-80
2023/02/06 01:03:57;;;;;;;4.80;2.30;;;;;;;;;;520090;28;1281;-79
2023/02/06 01:04:12;;;;;;;5.03;2.30;;;;;;;;;;520003;28;1303;-79
2023/02/06 01:04:28;;;;;;;3.90;2.00;;;;;;;;;;516960;28;1255;-79
2023/02/06 01:04:43;;;;;;;3.00;1.80;;;;;;;;;;518706;28;1910;-80
2023/02/06 01:04:58;;;;;;;3.15;1.80;;;;;;;;;;521721;28;1459;-79
2023/02/06 01:05:14;;;;;;;3.50;1.90;;;;;;;;;;522410;28;1235;-79
2023/02/06 01:05:29;;;;;;;3.67;2.03;;;;;;;;;;523833;28;1140;-79
2023/02/06 01:05:44;;;;;;;3.38;1.95;;;;;;;;;;521876;28;1238;-79
2023/02/06 01:06:00;;;;;;;3.80;2.00;;;;;;;;;;519305;28;1614;-79
2023/02/06 01:06:15;;;;;;;3.97;1.98;;;;;;;;;;519518;28;1209;-79
2023/02/06 01:06:31;;;;;;;4.40;1.87;;;;;;;;;;518829;28;1293;-80
2023/02/06 01:06:46;;;;;;;4.13;1.88;;;;;;;;;;517792;28;1315;-80
2023/02/06 01:07:01;;;;;;;3.33;1.70;;;;;;;;;;516884;28;1301;-80
2023/02/06 01:07:17;;;;;;;3.70;1.70;;;;;;;;;;515151;28;1263;-80
2023/02/06 01:07:32;;;;;;;3.53;1.80;;;;;;;;;;515670;28;1154;-80
2023/02/06 01:07:47;;;;;;;4.13;1.80;;;;;;;;;;515902;28;1109;-79
2023/02/06 01:08:02;;;;;;;4.73;1.80;;;;;;;;;;518290;28;1468;-80
2023/02/06 01:08:18;;;;;;;3.90;1.77;;;;;;;;;;519756;28;1398;-80
2023/02/06 01:08:33;;;;;;;3.10;1.70;;;;;;;;;;518979;28;1172;-80
2023/02/06 01:08:48;;;;;;;3.00;1.67;;;;;;;;;;516949;28;1095;-80
2023/02/06 01:09:04;;;;;;;4.07;1.73;;;;;;;;;;516475;28;1214;-79
2023/02/06 01:09:19;;;;;;;4.18;1.73;;;;;;;;;;518807;28;1528;-79
2023/02/06 01:09:34;;;;;;;3.30;1.53;;;;;;;;;;516650;28;1191;-80
2023/02/06 01:09:50;;;;;;;2.77;1.50;;;;;;;;;;517747;28;1265;-80
2023/02/06 01:10:06;;;;;;;2.67;1.60;;;;;;;;;;518305;28;1355;-80
2023/02/06 01:10:22;;;;;;;2.80;1.50;;;;;;;;;;517743;28;1370;-79
2023/02/06 01:10:40;;;;;;;3.60;1.55;;;;;;;;;;517553;28;1391;-80
2023/02/06 01:10:56;;;;;;;4.38;1.70;;;;;;;;;;519121;28;1140;-80
2023/02/06 01:11:17;;;;;;;4.28;1.73;;;;;;;;;;517782;28;1388;-80
2023/02/06 01:11:34;;;;;;;3.53;1.60;;;;;;;;;;518894;28;2144;-80
2023/02/06 01:11:49;;;;;;;2.75;1.50;;;;;;;;;;515852;28;1354;-79
2023/02/06 01:12:04;;;;;;;2.93;1.40;;;;;;;;;;516731;28;1225;-80
2023/02/06 01:12:20;;;;;;;3.10;1.58;;;;;;;;;;518687;28;1295;-80
2023/02/06 01:12:36;;;;;;;3.07;1.60;;;;;;;;;;519109;28;1164;-79
2023/02/06 01:12:51;;;;;;;2.50;1.38;;;;;;;;;;517486;28;1291;-80
2023/02/06 01:13:06;;;;;;;2.37;1.40;;;;;;;;;;516985;28;1310;-79
2023/02/06 01:13:22;;;;;;;2.45;1.50;;;;;;;;;;517016;28;1172;-80
2023/02/06 01:13:37;;;;;;;3.03;1.50;;;;;;;;;;520013;28;1236;-80
2023/02/06 01:13:53;;;;;;;3.53;1.40;;;;;;;;;;517707;28;1196;-80
2023/02/06 01:14:08;;;;;;;3.00;1.42;;;;;;;;;;515769;28;1192;-80
2023/02/06 01:14:23;;;;;;;2.65;1.50;;;;;;;;;;516836;28;1271;-79
2023/02/06 01:14:39;;;;;;;3.37;1.60;;;;;;;;;;517807;28;1369;-80
2023/02/06 01:14:54;;;;;;;3.07;1.67;;;;;;;;;;515353;28;1158;-79
2023/02/06 01:15:11;;;;;;;2.78;1.70;;;;;;;;;;515261;28;1180;-80
2023/02/06 01:15:27;;;;;;;3.22;1.60;;;;;;;;;;516881;28;1251;-80
2023/02/06 01:15:42;;;;;;;4.17;1.70;;;;;;;;;;518532;28;1354;-79
2023/02/06 01:15:58;;;;;;;4.43;1.80;;;;;;;;;;515398;28;1444;-80
2023/02/06 01:16:17;;;;;;;4.17;1.67;;;;;;;;;;516471;28;1248;-79
2023/02/06 01:16:33;;;;;;;4.03;1.60;;;;;;;;;;514966;28;1317;-80
2023/02/06 01:16:48;;;;;;;3.33;1.60;;;;;;;;;;518428;28;1712;-80
2023/02/06 01:17:03;;;;;;;3.17;1.57;;;;;;;;;;515640;28;1302;-80
2023/02/06 01:17:19;;;;;;;3.78;1.60;;;;;;;;;;515726;28;1102;-79
2023/02/06 01:17:34;;;;;;;3.77;1.70;;;;;;;;;;516171;28;1264;-80
2023/02/06 01:17:49;;;;;;;3.13;1.60;;;;;;;;;;518893;28;1309;-80
2023/02/06 01:18:05;;;;;;;3.53;1.50;;;;;;;;;;520048;28;1326;-79
2023/02/06 01:18:20;;;;;;;3.97;1.60;;;;;;;;;;518872;28;1202;-80
2023/02/06 01:18:36;;;;;;;3.20;1.60;;;;;;;;;;518812;28;1394;-80
2023/02/06 01:18:51;;;;;;;2.92;1.70;;;;;;;;;;520517;28;1284;-80
2023/02/06 01:19:07;;;;;;;3.27;1.70;;;;;;;;;;521321;28;1253;-80
2023/02/06 01:19:22;;;;;;;3.78;1.70;;;;;;;;;;518971;28;1327;-80
2023/02/06 01:19:37;;;;;;;3.73;1.77;;;;;;;;;;519362;28;1332;-80
2023/02/06 01:19:53;;;;;;;3.53;1.70;;;;;;;;;;516680;28;1196;-80
2023/02/06 01:20:11;;;;;;;4.17;1.70;;;;;;;;;;517733;28;1249;-80
2023/02/06 01:20:26;;;;;;;3.90;1.70;;;;;;;;;;519703;28;1266;-79
2023/02/06 01:20:41;;;;;;;3.78;1.70;;;;;;;;;;519514;28;1192;-80
2023/02/06 01:20:56;;;;;;;3.67;1.70;;;;;;;;;;518695;28;1161;-80
2023/02/06 01:21:15;;;;;;;2.93;1.70;;;;;;;;;;519393;28;1322;-80
2023/02/06 01:21:30;;;;;;;2.67;1.60;;;;;;;;;;519496;28;1056;-80
2023/02/06 01:21:45;;;;;;;3.00;1.60;;;;;;;;;;521439;28;1242;-80
2023/02/06 01:22:01;;;;;;;3.77;1.80;;;;;;;;;;520128;28;1219;-80
2023/02/06 01:22:16;;;;;;;3.85;1.80;;;;;;;;;;517856;28;1382;-79
2023/02/06 01:22:33;;;;;;;3.10;1.70;;;;;;;;;;518080;28;1211;-80
2023/02/06 01:22:49;;;;;;;3.25;1.70;;;;;;;;;;519059;28;1193;-80
2023/02/06 01:23:04;;;;;;;3.13;1.60;;;;;;;;;;518659;28;1382;-79
2023/02/06 01:23:19;;;;;;;3.30;1.70;;;;;;;;;;520136;28;1042;-79
2023/02/06 01:23:35;;;;;;;4.33;1.90;;;;;;;;;;519766;28;1318;-80
2023/02/06 01:23:53;;;;;;;3.83;1.83;;;;;;;;;;519286;28;1282;-79
2023/02/06 01:24:08;;;;;;;3.38;1.80;;;;;;;;;;517295;28;1376;-79
2023/02/06 01:24:23;;;;;;;3.53;1.63;;;;;;;;;;517922;28;1255;-79
2023/02/06 01:24:39;;;;;;;3.50;1.70;;;;;;;;;;514428;28;1914;-80
2023/02/06 01:24:54;;;;;;;4.07;1.90;;;;;;;;;;515335;28;1119;-79
2023/02/06 01:25:09;;;;;;;4.50;1.97;;;;;;;;;;517834;28;1166;-79
2023/02/06 01:25:25;;;;;;;4.07;2.00;;;;;;;;;;516615;28;1196;-80
2023/02/06 01:25:40;;;;;;;4.38;1.95;;;;;;;;;;516705;28;1204;-80
2023/02/06 01:25:55;;;;;;;4.33;1.93;;;;;;;;;;517215;28;1188;-80
2023/02/06 01:26:13;;;;;;;3.00;1.90;;;;;;;;;;517754;28;1200;-79
2023/02/06 01:26:29;;;;;;;3.60;1.85;;;;;;;;;;519433;28;1268;-79
2023/02/06 01:26:44;;;;;;;4.50;1.97;;;;;;;;;;521465;28;1170;-79
2023/02/06 01:26:59;;;;;;;4.37;1.97;;;;;;;;;;519454;28;1231;-80
2023/02/06 01:27:14;;;;;;;4.40;1.97;;;;;;;;;;517405;28;1226;-79
2023/02/06 01:27:30;;;;;;;4.60;2.03;;;;;;;;;;518061;28;1146;-79
2023/02/06 01:27:47;;;;;;;4.13;2.10;;;;;;;;;;515807;28;1181;-80
2023/02/06 01:28:03;;;;;;;4.15;2.20;;;;;;;;;;517248;28;1365;-80
2023/02/06 01:28:18;;;;;;;3.77;2.20;;;;;;;;;;517344;28;1202;-80
2023/02/06 01:28:41;;;;;;;4.00;2.17;;;;;;;;;;519638;28;1259;-79
2023/02/06 01:28:56;;;;;;;4.78;2.20;;;;;;;;;;514212;28;1308;-80
2023/02/06 01:29:12;;;;;;;4.20;2.20;;;;;;;;;;517720;28;1075;-79
2023/02/06 01:29:27;;;;;;;4.47;2.40;;;;;;;;;;514447;28;1239;-79
2023/02/06 01:29:42;;;;;;;4.20;2.27;;;;;;;;;;518983;28;1148;-79
2023/02/06 01:29:57;;;;;;;4.40;2.25;;;;;;;;;;519837;28;1175;-79
2023/02/06 01:30:13;;;;;;;4.90;2.20;;;;;;;;;;516601;28;1246;-79
2023/02/06 01:30:28;;;;;;;3.93;2.00;;;;;;;;;;517409;28;1406;-79
2023/02/06 01:30:43;;;;;;;3.60;2.00;;;;;;;;;;518264;28;1493;-80
2023/02/06 01:30:59;;;;;;;3.87;2.00;;;;;;;;;;519634;28;1493;-79
2023/02/06 01:31:26;;;;;;;4.53;2.10;;;;;;;;;;519660;28;1417;-79
2023/02/06 01:31:42;;;;;;;4.18;2.13;;;;;;;;;;517383;28;1115;-79
2023/02/06 01:31:57;;;;;;;4.05;2.10;;;;;;;;;;518328;28;1165;-79
2023/02/06 01:32:13;;;;;;;4.07;2.03;;;;;;;;;;517051;28;1657;-79
2023/02/06 01:32:28;;;;;;;4.53;2.17;;;;;;;;;;516906;28;1376;-79
2023/02/06 01:32:43;;;;;;;4.43;2.33;;;;;;;;;;515241;28;1339;-79
2023/02/06 01:32:59;;;;;;;4.70;2.20;;;;;;;;;;517284;28;1142;-79
2023/02/06 01:33:14;;;;;;;4.20;2.10;;;;;;;;;;517000;28;1240;-78
2023/02/06 01:33:29;;;;;;;4.00;2.25;;;;;;;;;;518694;28;1293;-79
2023/02/06 01:33:45;;;;;;;4.73;2.17;;;;;;;;;;515684;28;1453;-77
2023/02/06 01:34:01;;;;;;;5.32;2.28;;;;;;;;;;515944;28;969;-79
2023/02/06 01:34:16;;;;;;;5.18;2.40;;;;;;;;;;515717;28;1287;-79
2023/02/06 01:34:31;;;;;;;4.60;2.20;;;;;;;;;;517629;28;1031;-78
2023/02/06 01:34:47;;;;;;;4.73;2.00;;;;;;;;;;518842;28;1317;-79
2023/02/06 01:35:06;;;;;;;5.03;2.00;;;;;;;;;;515839;28;1251;-79
2023/02/06 01:35:21;;;;;;;3.95;2.00;;;;;;;;;;515288;28;1247;-79
2023/02/06 01:35:37;;;;;;;3.90;2.17;;;;;;;;;;516036;28;1323;-79
2023/02/06 01:35:55;;;;;;;4.88;2.22;;;;;;;;;;517247;28;1467;-79
2023/02/06 01:36:12;;;;;;;4.55;2.10;;;;;;;;;;520785;28;1259;-79
2023/02/06 01:36:27;;;;;;;4.00;2.00;;;;;;;;;;519004;28;1430;-79
2023/02/06 01:36:43;;;;;;;3.80;1.90;;;;;;;;;;521099;28;1596;-78